Briefing drone pour Crolles

Rechercher une autre localisation

Conditions de vol :


Nous sommes le : Mercredi 14 avril 2021
Il est 01:49 UTC (03:49 LT)

Lever de soleil : 04:25 UTC (06:25 LT)
Coucher de soleil : 18:47 UTC (20:47 LT)

Météo

L'essentiel des conditions de vol

VIGILANCE MÉTÉO FRANCE - Isère (38)
Pas de vigilances particulieres
CARTE TEMSI
CARTES DES FRONTS
METAR de LFLS
LFLS 140130Z AUTO VRB02KT CAVOK M01/M03 Q1024

Date d'émission: 14/04/2021
Heure d'émission: 01:30 UTC
Vent: Variable 2 KT (4 km/h)
Visibilité horizontale: > 10 km
Plafond : Plafond et visibilité OK (CAVOK)
Température: -1 °C
Point de rosée: -3 °C
Humidité: 86%
Pression (QNH): 1024 hPa
TAF de LFLS
LFLS 131905Z 1319/1415 CNL

Conditions prévues :

Heure d'émission : Bulletin éffectué le 13 à 19:00 UTC
Prévision : Valide du 13 a 19:00 UTC au 14 a 15:00 UTC
Nuages : à 0ft (0 m)
WEBCAM POUR CROLLES

Réglementation

Voler en sécurité

CARTES AERONAUTIQUE 1/500.000
CARTES VAC (LFLS)
SUP AIP




Chargement des AIP...
NOTAM (CROLLES + Terrain à proximité / FIR )




Chargement des NOTAMS...
CONTACT PREFECTURE 38


Avertissement : Les données mises à disposition sont indicatives. Oxygène Drone ne pourra être tenu responsable de dégâts causés aux biens et aux personnes.